Ferry Katsuragi — JI3611 — position and weather

sailwx.info

Track history (hours):
 
Tides and Currents Weather Stations Pressure Air Temp Water Temp Dewpoint Dewpoint Depression Visibility Wind Speed Wind Dir Waves Ship Positions

Ferry Katsuragi

Last reported at 2017-Jun-24 15:30 UTC. Time now 2017-Jun-24 15:36 UTC.
Position N 34°13' E 135°09'.

Length 108 m; draft 4 m.

Type: Passenger vessel. MMSI: 431301245.

Date/timePositionNaut miles runAvg speedWind from/ knotsBaromVisibWave heightAir tempDewpointWater temp
2017-Jun-24 15:30N 34°13' E 135°09'1 1.0
2017-Jun-24 15:00N 34°13' E 135°08'713.8
2017-Jun-24 14:29N 34°11' E 134°60'1 0.4
2017-Jun-24 10:51N 34°11' E 134°58'514.5
2017-Jun-24 10:31N 34°12' E 135°04'3 7.0
2017-Jun-24 10:00N 34°13' E 135°09'0 0.0
2017-Jun-24 09:31N 34°13' E 135°09'816.1
2017-Jun-24 09:00N 34°10' E 134°59'2 0.7
2017-Jun-24 05:25N 34°10' E 134°57'614.7
2017-Jun-24 05:00N 34°12' E 135°03'4 9.0
2017-Jun-24 04:30N 34°13' E 135°09'0 0.1
2017-Jun-24 04:00N 34°13' E 135°09'714.6
2017-Jun-24 03:30N 34°11' E 135°00'2 0.6
2017-Jun-24 00:09N 34°09' E 134°58'515.5
2017-Jun-23 23:50N 34°12' E 135°03'413.5
2017-Jun-23 23:30N 34°13' E 135°09'0 0.0
2017-Jun-23 23:00N 34°13' E 135°09'3 6.5
2017-Jun-23 22:30N 34°13' E 135°05'815.1
2017-Jun-23 22:00N 34°10' E 134°56'2 0.6
2017-Jun-23 18:37N 34°09' E 134°54'213.9
2017-Jun-23 18:27N 34°09' E 134°57'613.6
2017-Jun-23 18:00N 34°12' E 135°04'4 8.3
2017-Jun-23 17:30N 34°13' E 135°09'0 0.0
2017-Jun-23 17:00N 34°13' E 135°09'0 0.0
2017-Jun-23 16:30N 34°13' E 135°09'0 0.0
2017-Jun-23 16:00N 34°13' E 135°09'0 0.0
2017-Jun-23 15:30N 34°13' E 135°09'1 1.3
2017-Jun-23 15:00N 34°13' E 135°08'713.7
2017-Jun-23 14:30N 34°11' E 134°60'4 1.3
2017-Jun-23 11:06N 34°10' E 134°55'215.5
2017-Jun-23 10:57N 34°11' E 134°57'714.9
2017-Jun-23 10:30N 34°12' E 135°05'3 6.0
2017-Jun-23 10:00N 34°13' E 135°09'0 0.1
2017-Jun-23 09:31N 34°13' E 135°09'714.3
2017-Jun-23 09:00N 34°11' E 135°00'2 0.5
2017-Jun-23 05:21N 34°10' E 134°58'514.0
2017-Jun-23 04:59N 34°12' E 135°04'4 8.4
2017-Jun-23 04:30N 34°13' E 135°09'0 0.0
2017-Jun-23 04:01N 34°13' E 135°09'713.0
2017-Jun-23 03:30N 34°10' E 135°01'3 1.0
2017-Jun-23 00:09N 34°11' E 134°58'315.5
2017-Jun-22 23:59N 34°11' E 135°00'714.1
2017-Jun-22 23:30N 34°13' E 135°09'0 0.0
2017-Jun-22 23:00N 34°13' E 135°09'3 5.2
2017-Jun-22 22:30N 34°13' E 135°05'13 3.5
2017-Jun-22 18:50N 34°08' E 134°51'513.5
2017-Jun-22 18:28N 34°10' E 134°57'613.6
2017-Jun-22 18:00N 34°12' E 135°04'4 8.2
2017-Jun-22 17:30N 34°13' E 135°09'0 0.0
2017-Jun-22 17:00N 34°13' E 135°09'0 0.0
2017-Jun-22 16:30N 34°13' E 135°09'0 0.0
2017-Jun-22 16:00N 34°13' E 135°09'0 0.0
2017-Jun-22 15:30N 34°13' E 135°09'0 0.4
2017-Jun-22 15:00N 34°13' E 135°08'814.1
2017-Jun-22 14:28N 34°12' E 134°59'4 1.2
2017-Jun-22 11:03N 34°09' E 134°56'114.2
2017-Jun-22 10:59N 34°09' E 134°57'714.7
2017-Jun-22 10:30N 34°12' E 135°05'3 6.4
2017-Jun-22 10:00N 34°13' E 135°09'0 0.8
2017-Jun-22 09:31N 34°13' E 135°08'815.1
2017-Jun-22 09:00N 34°11' E 134°59'3 0.8
2017-Jun-22 05:27N 34°09' E 134°57'614.3
2017-Jun-22 05:01N 34°12' E 135°04'4 8.1
2017-Jun-22 04:30N 34°13' E 135°09'0 0.1
2017-Jun-22 04:00N 34°13' E 135°09'714.1
2017-Jun-22 03:30N 34°10' E 135°00'1 0.2
2017-Jun-21 23:58N 34°11' E 135°01'714.8
2017-Jun-21 23:30N 34°13' E 135°09'0 0.1
2017-Jun-21 23:00N 34°13' E 135°09'3 5.7
2017-Jun-21 22:30N 34°13' E 135°05'814.1
2017-Jun-21 21:58N 34°10' E 134°57'2 0.4
2017-Jun-21 18:21N 34°11' E 134°58'513.2
2017-Jun-21 18:00N 34°12' E 135°03'4 8.8
2017-Jun-21 17:30N 34°13' E 135°09'0 0.0
2017-Jun-21 17:00N 34°13' E 135°09'0 0.0
2017-Jun-21 16:30N 34°13' E 135°09'0 0.0
2017-Jun-21 16:00N 34°13' E 135°09'0 0.0
2017-Jun-21 15:31N 34°13' E 135°09'1 1.3
2017-Jun-21 15:00N 34°13' E 135°08'613.0
2017-Jun-21 14:31N 34°10' E 135°01'3 0.7
2017-Jun-21 10:52N 34°11' E 134°58'514.5
2017-Jun-21 10:30N 34°12' E 135°05'3 6.8
2017-Jun-21 10:00N 34°13' E 135°09'0 0.0
2017-Jun-21 09:30N 34°13' E 135°09'0 0.0
2017-Jun-21 09:00N 34°13' E 135°09'0 0.0
2017-Jun-21 08:30N 34°13' E 135°09'0 0.0
2017-Jun-21 08:00N 34°13' E 135°09'0 0.0
2017-Jun-21 07:30N 34°13' E 135°09'0 0.0
2017-Jun-21 07:00N 34°13' E 135°09'0 0.0
2017-Jun-21 06:30N 34°13' E 135°09'0 0.0
2017-Jun-21 06:00N 34°13' E 135°09'0 0.0
2017-Jun-21 05:30N 34°13' E 135°09'0 0.0
2017-Jun-21 05:00N 34°13' E 135°09'0 0.0
2017-Jun-21 04:30N 34°13' E 135°09'0 0.0
2017-Jun-21 04:00N 34°13' E 135°09'0 0.0
2017-Jun-21 03:30N 34°13' E 135°09'0 0.0
2017-Jun-21 03:00N 34°13' E 135°09'0 0.0
2017-Jun-21 02:30N 34°13' E 135°09'0 0.0
2017-Jun-21 02:00N 34°13' E 135°09'0 0.0
2017-Jun-21 01:30N 34°13' E 135°09'0 0.0
2017-Jun-21 01:00N 34°13' E 135°09'0 0.0
2017-Jun-21 00:30N 34°13' E 135°09'0 0.0
2017-Jun-21 00:00N 34°13' E 135°09'0 0.0
2017-Jun-20 23:30N 34°13' E 135°09'0 0.0
2017-Jun-20 23:00N 34°13' E 135°09'0 0.0
2017-Jun-20 22:30N 34°13' E 135°09'0 0.0
2017-Jun-20 22:00N 34°13' E 135°09'0 0.0
2017-Jun-20 21:30N 34°13' E 135°09'0 0.0
2017-Jun-20 21:00N 34°13' E 135°09'0 0.0
2017-Jun-20 20:30N 34°13' E 135°09'0 0.0
2017-Jun-20 20:00N 34°13' E 135°09'0 0.0
2017-Jun-20 19:30N 34°13' E 135°09'0 0.0
2017-Jun-20 19:00N 34°13' E 135°09'0 0.0
2017-Jun-20 18:30N 34°13' E 135°09'0 0.0
2017-Jun-20 18:00N 34°13' E 135°09'0 0.0
2017-Jun-20 17:30N 34°13' E 135°09'0 0.0
2017-Jun-20 17:00N 34°13' E 135°09'0 0.0
2017-Jun-20 16:30N 34°13' E 135°09'0 0.0
2017-Jun-20 16:00N 34°13' E 135°09'0 0.0
2017-Jun-20 15:30N 34°13' E 135°09'0 0.8
2017-Jun-20 15:01N 34°13' E 135°08'713.5
2017-Jun-20 14:30N 34°10' E 135°01'2 0.4
2017-Jun-20 10:53N 34°10' E 134°59'614.8
2017-Jun-20 10:30N 34°12' E 135°05'3 6.2
2017-Jun-20 10:00N 34°13' E 135°09'0 0.0
2017-Jun-20 09:30N 34°13' E 135°09'713.3
2017-Jun-20 09:00N 34°12' E 135°01'4 1.2
2017-Jun-20 05:28N 34°09' E 134°57'714.5
2017-Jun-20 05:00N 34°11' E 135°04'4 7.8
2017-Jun-20 04:31N 34°13' E 135°09'0 0.1
2017-Jun-20 04:01N 34°13' E 135°09'813.8
2017-Jun-20 03:26N 34°11' E 134°59'3 0.9
2017-Jun-20 00:14N 34°09' E 134°56'415.8
2017-Jun-20 00:00N 34°11' E 135°00'714.8
2017-Jun-19 23:30N 34°13' E 135°09'0 0.0
2017-Jun-19 23:00N 34°13' E 135°09'0 0.0
2017-Jun-19 22:30N 34°13' E 135°09'0 0.0
2017-Jun-19 22:00N 34°13' E 135°09'0 0.0
2017-Jun-19 21:30N 34°13' E 135°09'0 0.0
2017-Jun-19 21:00N 34°13' E 135°09'0 0.0
2017-Jun-19 20:30N 34°13' E 135°09'1 1.5
2017-Jun-19 20:01N 34°13' E 135°08'714.9
2017-Jun-19 19:31N 34°11' E 134°59'9 2.9
2017-Jun-19 16:34N 34°07' E 134°50'415.7
2017-Jun-19 16:19N 34°09' E 134°54'516.1
2017-Jun-19 16:00N 34°11' E 135°00'715.3
2017-Jun-19 15:31N 34°13' E 135°09'0 0.0
2017-Jun-19 15:01N 34°13' E 135°09'612.8
2017-Jun-19 14:30N 34°11' E 135°01'16 5.7
2017-Jun-19 11:46N 34°05' E 134°44'914.7
2017-Jun-19 11:07N 34°09' E 134°54'215.0
2017-Jun-19 10:58N 34°10' E 134°57'715.2
2017-Jun-19 10:30N 34°12' E 135°04'4 7.1
2017-Jun-19 10:00N 34°13' E 135°09'0 0.1
2017-Jun-19 09:31N 34°13' E 135°09'714.0
2017-Jun-19 09:00N 34°11' E 135°00'816.3
2017-Jun-19 08:31N 34°08' E 134°51'3 1.0
2017-Jun-19 05:29N 34°09' E 134°55'715.6
2017-Jun-19 05:00N 34°12' E 135°03'5 9.5
2017-Jun-19 04:30N 34°13' E 135°09'0 0.1
2017-Jun-19 04:01N 34°13' E 135°09'714.5
2017-Jun-19 03:30N 34°11' E 135°00'4 1.1
2017-Jun-19 00:13N 34°09' E 134°56'416.5
2017-Jun-18 23:58N 34°11' E 135°01'714.4
2017-Jun-18 23:30N 34°13' E 135°09'0 0.0
2017-Jun-18 23:00N 34°13' E 135°09'0 0.0
2017-Jun-18 22:30N 34°13' E 135°09'0 0.0
2017-Jun-18 22:00N 34°13' E 135°09'0 0.0
2017-Jun-18 21:30N 34°13' E 135°09'0 0.0
2017-Jun-18 21:01N 34°13' E 135°09'0 0.0
2017-Jun-18 20:30N 34°13' E 135°09'0 0.9
2017-Jun-18 20:01N 34°13' E 135°08'713.7
2017-Jun-18 19:30N 34°11' E 134°60'4 1.2
2017-Jun-18 16:12N 34°08' E 134°57'316.5
2017-Jun-18 16:00N 34°11' E 135°00'715.0
2017-Jun-18 15:30N 34°13' E 135°09'0 0.1
2017-Jun-18 15:00N 34°13' E 135°09'613.0
2017-Jun-18 14:31N 34°11' E 135°01'5 1.6
2017-Jun-18 11:04N 34°09' E 134°55'214.8
2017-Jun-18 10:58N 34°10' E 134°57'715.4
2017-Jun-18 10:30N 34°12' E 135°05'3 6.9
2017-Jun-18 10:00N 34°13' E 135°09'0 0.0
2017-Jun-18 09:30N 34°13' E 135°09'814.3
2017-Jun-18 08:59N 34°11' E 134°60'2 0.5
2017-Jun-18 05:20N 34°10' E 134°58'515.2
2017-Jun-18 05:00N 34°12' E 135°03'5 9.1
2017-Jun-18 04:30N 34°13' E 135°09'0 0.1
2017-Jun-18 04:00N 34°13' E 135°09'714.5
2017-Jun-18 03:30N 34°10' E 135°00'2 0.7
2017-Jun-18 00:11N 34°09' E 134°58'315.7
2017-Jun-18 00:01N 34°11' E 135°00'714.1
2017-Jun-17 23:31N 34°13' E 135°09'0 0.0
2017-Jun-17 23:00N 34°13' E 135°09'0 0.0
2017-Jun-17 22:31N 34°13' E 135°09'0 0.0
2017-Jun-17 22:01N 34°13' E 135°09'0 0.0
2017-Jun-17 21:31N 34°13' E 135°09'0 0.0
2017-Jun-17 21:01N 34°13' E 135°09'0 0.0
2017-Jun-17 20:31N 34°13' E 135°09'1 1.3
2017-Jun-17 20:00N 34°13' E 135°08'714.4
2017-Jun-17 19:30N 34°12' E 134°59'14 5.6
2017-Jun-17 16:54N 34°05' E 134°43'1115.8
2017-Jun-17 16:13N 34°09' E 134°56'417.5
2017-Jun-17 16:00N 34°10' E 135°00'815.3
2017-Jun-17 15:30N 34°13' E 135°09'0 0.4
2017-Jun-17 15:01N 34°13' E 135°08'815.4
2017-Jun-17 14:28N 34°12' E 134°58'2 0.7
2017-Jun-17 11:01N 34°10' E 134°57'714.6
2017-Jun-17 10:30N 34°13' E 135°05'3 5.4
2017-Jun-17 10:00N 34°13' E 135°09'0 0.0
2017-Jun-17 09:30N 34°13' E 135°09'713.3
2017-Jun-17 09:00N 34°11' E 135°01'2 0.5
2017-Jun-17 05:19N 34°10' E 134°59'514.7
2017-Jun-17 05:00N 34°12' E 135°04'4 8.0
2017-Jun-17 04:30N 34°13' E 135°09'0 0.0
2017-Jun-17 04:00N 34°13' E 135°09'914.2
2017-Jun-17 03:24N 34°10' E 134°59'4 1.2
2017-Jun-16 23:48N 34°12' E 135°03'414.7
2017-Jun-16 23:31N 34°13' E 135°09'0 0.0
2017-Jun-16 23:00N 34°13' E 135°09'0 0.0
2017-Jun-16 22:30N 34°13' E 135°09'0 0.0
2017-Jun-16 22:01N 34°13' E 135°09'0 0.0
2017-Jun-16 21:30N 34°13' E 135°09'0 0.0
2017-Jun-16 21:01N 34°13' E 135°09'0 0.0
2017-Jun-16 20:30N 34°13' E 135°09'2 3.5
2017-Jun-16 20:00N 34°13' E 135°06'714.0
2017-Jun-16 19:30N 34°11' E 134°58'14 5.6
2017-Jun-16 16:58N 34°05' E 134°43'1015.5
2017-Jun-16 16:19N 34°09' E 134°54'516.3
2017-Jun-16 16:00N 34°11' E 134°60'815.5
2017-Jun-16 15:30N 34°13' E 135°09'0 0.3
2017-Jun-16 15:00N 34°13' E 135°08'713.2
2017-Jun-16 14:30N 34°11' E 135°01'4 1.2
2017-Jun-16 11:00N 34°10' E 134°56'714.9
2017-Jun-16 10:31N 34°12' E 135°04'4 7.1
2017-Jun-16 10:00N 34°13' E 135°09'0 0.1
2017-Jun-16 09:30N 34°13' E 135°09'714.4
2017-Jun-16 09:00N 34°10' E 135°00'2 0.4
2017-Jun-16 05:05N 34°11' E 135°02'115.2
2017-Jun-16 05:00N 34°12' E 135°03'5 9.3
2017-Jun-16 04:30N 34°13' E 135°09'0 0.0
2017-Jun-16 04:00N 34°13' E 135°09'612.4
2017-Jun-16 03:30N 34°11' E 135°01'0 0.1
2017-Jun-15 23:57N 34°11' E 135°01'614.4
2017-Jun-15 23:30N 34°13' E 135°09'0 0.0
2017-Jun-15 23:00N 34°13' E 135°09'0 0.0
2017-Jun-15 22:30N 34°13' E 135°09'0 0.0
2017-Jun-15 22:01N 34°13' E 135°09'0 0.0
2017-Jun-15 21:30N 34°13' E 135°09'0 0.0
2017-Jun-15 21:00N 34°13' E 135°09'0 0.0
2017-Jun-15 20:30N 34°13' E 135°09'1 1.7
2017-Jun-15 20:00N 34°13' E 135°08'714.2
2017-Jun-15 19:30N 34°10' E 134°60'2 0.5
2017-Jun-15 16:07N 34°11' E 134°58'215.5
2017-Jun-15 16:00N 34°11' E 134°60'715.0
2017-Jun-15 15:31N 34°13' E 135°09'0 0.1
2017-Jun-15 15:01N 34°13' E 135°09'713.4
2017-Jun-15 14:30N 34°11' E 135°01'15 5.5
2017-Jun-15 11:45N 34°06' E 134°44'714.7
2017-Jun-15 11:18N 34°08' E 134°51'415.1
2017-Jun-15 11:00N 34°09' E 134°56'815.4
2017-Jun-15 10:30N 34°12' E 135°05'3 6.3
2017-Jun-15 10:00N 34°13' E 135°09'0 0.1
2017-Jun-15 09:30N 34°13' E 135°09'713.9
2017-Jun-15 09:00N 34°11' E 135°00'4 1.1
2017-Jun-15 05:26N 34°09' E 134°57'715.2
2017-Jun-15 05:00N 34°12' E 135°03'4 8.8
2017-Jun-15 04:30N 34°13' E 135°09'0 0.0
2017-Jun-15 04:01N 34°13' E 135°09'612.1
2017-Jun-15 03:30N 34°11' E 135°02'4 1.2
2017-Jun-15 00:09N 34°10' E 134°57'216.7
2017-Jun-15 00:00N 34°11' E 134°60'815.3
2017-Jun-14 23:30N 34°13' E 135°09'0 0.0
2017-Jun-14 23:00N 34°13' E 135°09'0 0.0
2017-Jun-14 22:30N 34°13' E 135°09'0 0.0
2017-Jun-14 22:01N 34°13' E 135°09'0 0.0
2017-Jun-14 21:30N 34°13' E 135°09'0 0.0
2017-Jun-14 21:01N 34°13' E 135°09'0 0.0
2017-Jun-14 20:30N 34°13' E 135°09'1 1.0
2017-Jun-14 20:00N 34°13' E 135°08'713.8
2017-Jun-14 19:29N 34°11' E 134°60'6 1.9
2017-Jun-14 16:24N 34°08' E 134°53'615.7
2017-Jun-14 16:00N 34°11' E 135°00'  
Track history (hours):
 
Tides and Currents Weather Stations Pressure Air Temp Water Temp Dewpoint Dewpoint Depression Visibility Wind Speed Wind Dir Waves Ship Positions

Ferry Katsuragi

Last reported at 2017-Jun-24 15:30 UTC. Time now 2017-Jun-24 15:36 UTC.
Position N 34°13' E 135°09'.

Length 108 m; draft 4 m.

Type: Passenger vessel. MMSI: 431301245.

Date/timePositionNaut miles runAvg speedWind from/ knotsBaromVisibWave heightAir tempDewpointWater temp
2017-Jun-24 15:30N 34°13' E 135°09'1 1.0
2017-Jun-24 15:00N 34°13' E 135°08'713.8
2017-Jun-24 14:29N 34°11' E 134°60'1 0.4
2017-Jun-24 10:51N 34°11' E 134°58'514.5
2017-Jun-24 10:31N 34°12' E 135°04'3 7.0
2017-Jun-24 10:00N 34°13' E 135°09'0 0.0
2017-Jun-24 09:31N 34°13' E 135°09'816.1
2017-Jun-24 09:00N 34°10' E 134°59'2 0.7
2017-Jun-24 05:25N 34°10' E 134°57'614.7
2017-Jun-24 05:00N 34°12' E 135°03'4 9.0
2017-Jun-24 04:30N 34°13' E 135°09'0 0.1
2017-Jun-24 04:00N 34°13' E 135°09'714.6
2017-Jun-24 03:30N 34°11' E 135°00'2 0.6
2017-Jun-24 00:09N 34°09' E 134°58'515.5
2017-Jun-23 23:50N 34°12' E 135°03'413.5
2017-Jun-23 23:30N 34°13' E 135°09'0 0.0
2017-Jun-23 23:00N 34°13' E 135°09'3 6.5
2017-Jun-23 22:30N 34°13' E 135°05'815.1
2017-Jun-23 22:00N 34°10' E 134°56'2 0.6
2017-Jun-23 18:37N 34°09' E 134°54'213.9
2017-Jun-23 18:27N 34°09' E 134°57'613.6
2017-Jun-23 18:00N 34°12' E 135°04'4 8.3
2017-Jun-23 17:30N 34°13' E 135°09'0 0.0
2017-Jun-23 17:00N 34°13' E 135°09'0 0.0
2017-Jun-23 16:30N 34°13' E 135°09'0 0.0
2017-Jun-23 16:00N 34°13' E 135°09'0 0.0
2017-Jun-23 15:30N 34°13' E 135°09'1 1.3
2017-Jun-23 15:00N 34°13' E 135°08'713.7
2017-Jun-23 14:30N 34°11' E 134°60'4 1.3
2017-Jun-23 11:06N 34°10' E 134°55'215.5
2017-Jun-23 10:57N 34°11' E 134°57'714.9
2017-Jun-23 10:30N 34°12' E 135°05'3 6.0
2017-Jun-23 10:00N 34°13' E 135°09'0 0.1
2017-Jun-23 09:31N 34°13' E 135°09'714.3
2017-Jun-23 09:00N 34°11' E 135°00'2 0.5
2017-Jun-23 05:21N 34°10' E 134°58'514.0
2017-Jun-23 04:59N 34°12' E 135°04'4 8.4
2017-Jun-23 04:30N 34°13' E 135°09'0 0.0
2017-Jun-23 04:01N 34°13' E 135°09'713.0
2017-Jun-23 03:30N 34°10' E 135°01'3 1.0
2017-Jun-23 00:09N 34°11' E 134°58'315.5
2017-Jun-22 23:59N 34°11' E 135°00'714.1
2017-Jun-22 23:30N 34°13' E 135°09'0 0.0
2017-Jun-22 23:00N 34°13' E 135°09'3 5.2
2017-Jun-22 22:30N 34°13' E 135°05'13 3.5
2017-Jun-22 18:50N 34°08' E 134°51'513.5
2017-Jun-22 18:28N 34°10' E 134°57'613.6
2017-Jun-22 18:00N 34°12' E 135°04'4 8.2
2017-Jun-22 17:30N 34°13' E 135°09'0 0.0
2017-Jun-22 17:00N 34°13' E 135°09'0 0.0
2017-Jun-22 16:30N 34°13' E 135°09'0 0.0
2017-Jun-22 16:00N 34°13' E 135°09'0 0.0
2017-Jun-22 15:30N 34°13' E 135°09'0 0.4
2017-Jun-22 15:00N 34°13' E 135°08'814.1
2017-Jun-22 14:28N 34°12' E 134°59'4 1.2
2017-Jun-22 11:03N 34°09' E 134°56'114.2
2017-Jun-22 10:59N 34°09' E 134°57'714.7
2017-Jun-22 10:30N 34°12' E 135°05'3 6.4
2017-Jun-22 10:00N 34°13' E 135°09'0 0.8
2017-Jun-22 09:31N 34°13' E 135°08'815.1
2017-Jun-22 09:00N 34°11' E 134°59'3 0.8
2017-Jun-22 05:27N 34°09' E 134°57'614.3
2017-Jun-22 05:01N 34°12' E 135°04'4 8.1
2017-Jun-22 04:30N 34°13' E 135°09'0 0.1
2017-Jun-22 04:00N 34°13' E 135°09'714.1
2017-Jun-22 03:30N 34°10' E 135°00'1 0.2
2017-Jun-21 23:58N 34°11' E 135°01'714.8
2017-Jun-21 23:30N 34°13' E 135°09'0 0.1
2017-Jun-21 23:00N 34°13' E 135°09'3 5.7
2017-Jun-21 22:30N 34°13' E 135°05'814.1
2017-Jun-21 21:58N 34°10' E 134°57'2 0.4
2017-Jun-21 18:21N 34°11' E 134°58'513.2
2017-Jun-21 18:00N 34°12' E 135°03'4 8.8
2017-Jun-21 17:30N 34°13' E 135°09'0 0.0
2017-Jun-21 17:00N 34°13' E 135°09'0 0.0
2017-Jun-21 16:30N 34°13' E 135°09'0 0.0
2017-Jun-21 16:00N 34°13' E 135°09'0 0.0
2017-Jun-21 15:31N 34°13' E 135°09'1 1.3
2017-Jun-21 15:00N 34°13' E 135°08'613.0
2017-Jun-21 14:31N 34°10' E 135°01'3 0.7
2017-Jun-21 10:52N 34°11' E 134°58'514.5
2017-Jun-21 10:30N 34°12' E 135°05'3 6.8
2017-Jun-21 10:00N 34°13' E 135°09'0 0.0
2017-Jun-21 09:30N 34°13' E 135°09'0 0.0
2017-Jun-21 09:00N 34°13' E 135°09'0 0.0
2017-Jun-21 08:30N 34°13' E 135°09'0 0.0
2017-Jun-21 08:00N 34°13' E 135°09'0 0.0
2017-Jun-21 07:30N 34°13' E 135°09'0 0.0
2017-Jun-21 07:00N 34°13' E 135°09'0 0.0
2017-Jun-21 06:30N 34°13' E 135°09'0 0.0
2017-Jun-21 06:00N 34°13' E 135°09'0 0.0
2017-Jun-21 05:30N 34°13' E 135°09'0 0.0
2017-Jun-21 05:00N 34°13' E 135°09'0 0.0
2017-Jun-21 04:30N 34°13' E 135°09'0 0.0
2017-Jun-21 04:00N 34°13' E 135°09'0 0.0
2017-Jun-21 03:30N 34°13' E 135°09'0 0.0
2017-Jun-21 03:00N 34°13' E 135°09'0 0.0
2017-Jun-21 02:30N 34°13' E 135°09'0 0.0
2017-Jun-21 02:00N 34°13' E 135°09'0 0.0
2017-Jun-21 01:30N 34°13' E 135°09'0 0.0
2017-Jun-21 01:00N 34°13' E 135°09'0 0.0
2017-Jun-21 00:30N 34°13' E 135°09'0 0.0
2017-Jun-21 00:00N 34°13' E 135°09'0 0.0
2017-Jun-20 23:30N 34°13' E 135°09'0 0.0
2017-Jun-20 23:00N 34°13' E 135°09'0 0.0
2017-Jun-20 22:30N 34°13' E 135°09'0 0.0
2017-Jun-20 22:00N 34°13' E 135°09'0 0.0
2017-Jun-20 21:30N 34°13' E 135°09'0 0.0
2017-Jun-20 21:00N 34°13' E 135°09'0 0.0
2017-Jun-20 20:30N 34°13' E 135°09'0 0.0
2017-Jun-20 20:00N 34°13' E 135°09'0 0.0
2017-Jun-20 19:30N 34°13' E 135°09'0 0.0
2017-Jun-20 19:00N 34°13' E 135°09'0 0.0
2017-Jun-20 18:30N 34°13' E 135°09'0 0.0
2017-Jun-20 18:00N 34°13' E 135°09'0 0.0
2017-Jun-20 17:30N 34°13' E 135°09'0 0.0
2017-Jun-20 17:00N 34°13' E 135°09'0 0.0
2017-Jun-20 16:30N 34°13' E 135°09'0 0.0
2017-Jun-20 16:00N 34°13' E 135°09'0 0.0
2017-Jun-20 15:30N 34°13' E 135°09'0 0.8
2017-Jun-20 15:01N 34°13' E 135°08'713.5
2017-Jun-20 14:30N 34°10' E 135°01'2 0.4
2017-Jun-20 10:53N 34°10' E 134°59'614.8
2017-Jun-20 10:30N 34°12' E 135°05'3 6.2
2017-Jun-20 10:00N 34°13' E 135°09'0 0.0
2017-Jun-20 09:30N 34°13' E 135°09'713.3
2017-Jun-20 09:00N 34°12' E 135°01'4 1.2
2017-Jun-20 05:28N 34°09' E 134°57'714.5
2017-Jun-20 05:00N 34°11' E 135°04'4 7.8
2017-Jun-20 04:31N 34°13' E 135°09'0 0.1
2017-Jun-20 04:01N 34°13' E 135°09'813.8
2017-Jun-20 03:26N 34°11' E 134°59'3 0.9
2017-Jun-20 00:14N 34°09' E 134°56'415.8
2017-Jun-20 00:00N 34°11' E 135°00'714.8
2017-Jun-19 23:30N 34°13' E 135°09'0 0.0
2017-Jun-19 23:00N 34°13' E 135°09'0 0.0
2017-Jun-19 22:30N 34°13' E 135°09'0 0.0
2017-Jun-19 22:00N 34°13' E 135°09'0 0.0
2017-Jun-19 21:30N 34°13' E 135°09'0 0.0
2017-Jun-19 21:00N 34°13' E 135°09'0 0.0
2017-Jun-19 20:30N 34°13' E 135°09'1 1.5
2017-Jun-19 20:01N 34°13' E 135°08'714.9
2017-Jun-19 19:31N 34°11' E 134°59'9 2.9
2017-Jun-19 16:34N 34°07' E 134°50'415.7
2017-Jun-19 16:19N 34°09' E 134°54'516.1
2017-Jun-19 16:00N 34°11' E 135°00'715.3
2017-Jun-19 15:31N 34°13' E 135°09'0 0.0
2017-Jun-19 15:01N 34°13' E 135°09'612.8
2017-Jun-19 14:30N 34°11' E 135°01'16 5.7
2017-Jun-19 11:46N 34°05' E 134°44'914.7
2017-Jun-19 11:07N 34°09' E 134°54'215.0
2017-Jun-19 10:58N 34°10' E 134°57'715.2
2017-Jun-19 10:30N 34°12' E 135°04'4 7.1
2017-Jun-19 10:00N 34°13' E 135°09'0 0.1
2017-Jun-19 09:31N 34°13' E 135°09'714.0
2017-Jun-19 09:00N 34°11' E 135°00'816.3
2017-Jun-19 08:31N 34°08' E 134°51'3 1.0
2017-Jun-19 05:29N 34°09' E 134°55'715.6
2017-Jun-19 05:00N 34°12' E 135°03'5 9.5
2017-Jun-19 04:30N 34°13' E 135°09'0 0.1
2017-Jun-19 04:01N 34°13' E 135°09'714.5
2017-Jun-19 03:30N 34°11' E 135°00'4 1.1
2017-Jun-19 00:13N 34°09' E 134°56'416.5
2017-Jun-18 23:58N 34°11' E 135°01'714.4
2017-Jun-18 23:30N 34°13' E 135°09'0 0.0
2017-Jun-18 23:00N 34°13' E 135°09'0 0.0
2017-Jun-18 22:30N 34°13' E 135°09'0 0.0
2017-Jun-18 22:00N 34°13' E 135°09'0 0.0
2017-Jun-18 21:30N 34°13' E 135°09'0 0.0
2017-Jun-18 21:01N 34°13' E 135°09'0 0.0
2017-Jun-18 20:30N 34°13' E 135°09'0 0.9
2017-Jun-18 20:01N 34°13' E 135°08'713.7
2017-Jun-18 19:30N 34°11' E 134°60'4 1.2
2017-Jun-18 16:12N 34°08' E 134°57'316.5
2017-Jun-18 16:00N 34°11' E 135°00'715.0
2017-Jun-18 15:30N 34°13' E 135°09'0 0.1
2017-Jun-18 15:00N 34°13' E 135°09'613.0
2017-Jun-18 14:31N 34°11' E 135°01'5 1.6
2017-Jun-18 11:04N 34°09' E 134°55'214.8
2017-Jun-18 10:58N 34°10' E 134°57'715.4
2017-Jun-18 10:30N 34°12' E 135°05'3 6.9
2017-Jun-18 10:00N 34°13' E 135°09'0 0.0
2017-Jun-18 09:30N 34°13' E 135°09'814.3
2017-Jun-18 08:59N 34°11' E 134°60'2 0.5
2017-Jun-18 05:20N 34°10' E 134°58'515.2
2017-Jun-18 05:00N 34°12' E 135°03'5 9.1
2017-Jun-18 04:30N 34°13' E 135°09'0 0.1
2017-Jun-18 04:00N 34°13' E 135°09'714.5
2017-Jun-18 03:30N 34°10' E 135°00'2 0.7
2017-Jun-18 00:11N 34°09' E 134°58'315.7
2017-Jun-18 00:01N 34°11' E 135°00'714.1
2017-Jun-17 23:31N 34°13' E 135°09'0 0.0
2017-Jun-17 23:00N 34°13' E 135°09'0 0.0
2017-Jun-17 22:31N 34°13' E 135°09'0 0.0
2017-Jun-17 22:01N 34°13' E 135°09'0 0.0
2017-Jun-17 21:31N 34°13' E 135°09'0 0.0
2017-Jun-17 21:01N 34°13' E 135°09'0 0.0
2017-Jun-17 20:31N 34°13' E 135°09'1 1.3
2017-Jun-17 20:00N 34°13' E 135°08'714.4
2017-Jun-17 19:30N 34°12' E 134°59'14 5.6
2017-Jun-17 16:54N 34°05' E 134°43'1115.8
2017-Jun-17 16:13N 34°09' E 134°56'417.5
2017-Jun-17 16:00N 34°10' E 135°00'815.3
2017-Jun-17 15:30N 34°13' E 135°09'0 0.4
2017-Jun-17 15:01N 34°13' E 135°08'815.4
2017-Jun-17 14:28N 34°12' E 134°58'2 0.7
2017-Jun-17 11:01N 34°10' E 134°57'714.6
2017-Jun-17 10:30N 34°13' E 135°05'3 5.4
2017-Jun-17 10:00N 34°13' E 135°09'0 0.0
2017-Jun-17 09:30N 34°13' E 135°09'713.3
2017-Jun-17 09:00N 34°11' E 135°01'2 0.5
2017-Jun-17 05:19N 34°10' E 134°59'514.7
2017-Jun-17 05:00N 34°12' E 135°04'4 8.0
2017-Jun-17 04:30N 34°13' E 135°09'0 0.0
2017-Jun-17 04:00N 34°13' E 135°09'914.2
2017-Jun-17 03:24N 34°10' E 134°59'4 1.2
2017-Jun-16 23:48N 34°12' E 135°03'414.7
2017-Jun-16 23:31N 34°13' E 135°09'0 0.0
2017-Jun-16 23:00N 34°13' E 135°09'0 0.0
2017-Jun-16 22:30N 34°13' E 135°09'0 0.0
2017-Jun-16 22:01N 34°13' E 135°09'0 0.0
2017-Jun-16 21:30N 34°13' E 135°09'0 0.0
2017-Jun-16 21:01N 34°13' E 135°09'0 0.0
2017-Jun-16 20:30N 34°13' E 135°09'2 3.5
2017-Jun-16 20:00N 34°13' E 135°06'714.0
2017-Jun-16 19:30N 34°11' E 134°58'14 5.6
2017-Jun-16 16:58N 34°05' E 134°43'1015.5
2017-Jun-16 16:19N 34°09' E 134°54'516.3
2017-Jun-16 16:00N 34°11' E 134°60'815.5
2017-Jun-16 15:30N 34°13' E 135°09'0 0.3
2017-Jun-16 15:00N 34°13' E 135°08'713.2
2017-Jun-16 14:30N 34°11' E 135°01'4 1.2
2017-Jun-16 11:00N 34°10' E 134°56'714.9
2017-Jun-16 10:31N 34°12' E 135°04'4 7.1
2017-Jun-16 10:00N 34°13' E 135°09'0 0.1
2017-Jun-16 09:30N 34°13' E 135°09'714.4
2017-Jun-16 09:00N 34°10' E 135°00'2 0.4
2017-Jun-16 05:05N 34°11' E 135°02'115.2
2017-Jun-16 05:00N 34°12' E 135°03'5 9.3
2017-Jun-16 04:30N 34°13' E 135°09'0 0.0
2017-Jun-16 04:00N 34°13' E 135°09'612.4
2017-Jun-16 03:30N 34°11' E 135°01'0 0.1
2017-Jun-15 23:57N 34°11' E 135°01'614.4
2017-Jun-15 23:30N 34°13' E 135°09'0 0.0
2017-Jun-15 23:00N 34°13' E 135°09'0 0.0
2017-Jun-15 22:30N 34°13' E 135°09'0 0.0
2017-Jun-15 22:01N 34°13' E 135°09'0 0.0
2017-Jun-15 21:30N 34°13' E 135°09'0 0.0
2017-Jun-15 21:00N 34°13' E 135°09'0 0.0
2017-Jun-15 20:30N 34°13' E 135°09'1 1.7
2017-Jun-15 20:00N 34°13' E 135°08'714.2
2017-Jun-15 19:30N 34°10' E 134°60'2 0.5
2017-Jun-15 16:07N 34°11' E 134°58'215.5
2017-Jun-15 16:00N 34°11' E 134°60'715.0
2017-Jun-15 15:31N 34°13' E 135°09'0 0.1
2017-Jun-15 15:01N 34°13' E 135°09'713.4
2017-Jun-15 14:30N 34°11' E 135°01'15 5.5
2017-Jun-15 11:45N 34°06' E 134°44'714.7
2017-Jun-15 11:18N 34°08' E 134°51'415.1
2017-Jun-15 11:00N 34°09' E 134°56'815.4
2017-Jun-15 10:30N 34°12' E 135°05'3 6.3
2017-Jun-15 10:00N 34°13' E 135°09'0 0.1
2017-Jun-15 09:30N 34°13' E 135°09'713.9
2017-Jun-15 09:00N 34°11' E 135°00'4 1.1
2017-Jun-15 05:26N 34°09' E 134°57'715.2
2017-Jun-15 05:00N 34°12' E 135°03'4 8.8
2017-Jun-15 04:30N 34°13' E 135°09'0 0.0
2017-Jun-15 04:01N 34°13' E 135°09'612.1
2017-Jun-15 03:30N 34°11' E 135°02'4 1.2
2017-Jun-15 00:09N 34°10' E 134°57'216.7
2017-Jun-15 00:00N 34°11' E 134°60'815.3
2017-Jun-14 23:30N 34°13' E 135°09'0 0.0
2017-Jun-14 23:00N 34°13' E 135°09'0 0.0
2017-Jun-14 22:30N 34°13' E 135°09'0 0.0
2017-Jun-14 22:01N 34°13' E 135°09'0 0.0
2017-Jun-14 21:30N 34°13' E 135°09'0 0.0
2017-Jun-14 21:01N 34°13' E 135°09'0 0.0
2017-Jun-14 20:30N 34°13' E 135°09'1 1.0
2017-Jun-14 20:00N 34°13' E 135°08'713.8
2017-Jun-14 19:29N 34°11' E 134°60'6 1.9
2017-Jun-14 16:24N 34°08' E 134°53'615.7
2017-Jun-14 16:00N 34°11' E 135°00'  

Dump ship's entire track history